aviador You're here:

MMSL Decoded Metar

in
Report Time2017-10-17 19:47:00
UTC Time2017-10-17 20:19:55
Flight Rules vfr VFR
WindCalm
Visibility9999 m
Phenomena:N/A
Clouds:N/A
Expected CloudBase > 2,800 ft AGL from Temp-Dew spread
CeilingNone
Temp31°C
Dew Point24°C (66% RH)
Heat Index36.4°C
QNH1015 hPa
Raw Report
METAR MMSL 171947Z 00000KT 9SM SKC 31/24 A2996=

Extra information for MMSL:More info

Social comments